Главная страница
METAR-TAF:

METAR-TAF

Аэропорты :

Джинна

Карачи, Пакистан

широта: 24-54N, долгота: 067-08E, высота над уровнем моря: 21 м

Текущие метеонаблюдения

Эта сводка был подготовлена 43 минут назад, в 21:25 UTC
Ветер 5 Узел от западный
Температура 27°C
Влажность 74%
Давление 1008 hPa
Видимость: 6000 м

METAR: OPKC 252125Z 26005KT 6000 NSC 27/22 Q1008 NOSIG

Время: 03:08 (22:08 UTC)

Прогноз

Эта сводка был подготовлена 6 часа и 23 минут назад, в 15:45 UTC
Прогноз действительный с 25-го 18 UTC до 26-го 24 UTC
Ветер 5 Узел от западный с порывами до 15 Узел
Видимость: 5000 м
мгла
С 26-го 0600 UTC
Ветер 10 Узел от западный-юго-западный с порывами до 20 Узел
Видимость: 7000 м
изменения
С 26-го 18 UTC до 26-го 20 UTC
Ветер 10 Узел от западный
Видимость: 5000 м
мгла

TAF: OPKC 251545Z 2518/2624 27005G15KT 5000 HZ NSC FM260600 24010G20KT 7000 NSC BECMG 2618/2620 27010KT 5000 HZ NSC

Метеонаблюдения и прогнозы для более 4000 аэропортов (сводки METAR и TAF).

Имеющиеся станции представлены на карте желтыми и красными точками.

Чтобы увидеть название станции, наведите на нее мышь.

Затем щелкните, чтобы увидеть метеонаблюдения и метеопрогнозы.

Управление картой: чтобы увеличить масштаб, щелкните зеленые кнопки с черным крестиком; чтобы уменьшить масштаб, щелкните зеленую кнопку с тире; для просмотра соседних карт щелкайте зеленые стрелки.


METAR-TAF: